Time;durP1;ratioP1;P1;durP2;ratioP2;P2;SDS_P1;SDS_P2;PMS_P1;PMS_P2;Temp;Humidity;BMP_temperature;BMP_pressure;BME280_temperature;BME280_humidity;BME280_pressure;Samples;Min_cycle;Max_cycle;Signal;HPM_P1;HPM_P2
2023/04/09 00:01:03;;;;;;;9.20;6.53;;;;;;;;;;4987232;28;20413;-96
2023/04/09 00:03:29;;;;;;;10.57;9.10;;;;;;;;;;4990661;28;20827;-95
2023/04/09 00:05:55;;;;;;;8.27;7.43;;;;;;;;;;4994260;28;20416;-95
2023/04/09 00:08:22;;;;;;;10.20;8.60;;;;;;;;;;4990679;28;20419;-95
2023/04/09 00:10:48;;;;;;;9.47;7.20;;;;;;;;;;4992067;28;20408;-96
2023/04/09 00:13:15;;;;;;;10.30;7.37;;;;;;;;;;4996683;28;20463;-96
2023/04/09 00:15:42;;;;;;;9.27;8.10;;;;;;;;;;5005012;28;20497;-96
2023/04/09 00:18:08;;;;;;;7.93;7.03;;;;;;;;;;4997291;28;20428;-96
2023/04/09 00:20:34;;;;;;;8.20;7.10;;;;;;;;;;4991730;28;20803;-94
2023/04/09 00:23:00;;;;;;;11.60;7.43;;;;;;;;;;4986152;28;20443;-94
2023/04/09 00:25:27;;;;;;;8.60;7.63;;;;;;;;;;4988142;28;20472;-96
2023/04/09 00:27:53;;;;;;;11.07;8.13;;;;;;;;;;4989285;28;20469;-96
2023/04/09 00:30:20;;;;;;;11.37;8.53;;;;;;;;;;4990439;28;20420;-96
2023/04/09 00:32:46;;;;;;;13.13;8.83;;;;;;;;;;4986999;28;20820;-96
2023/04/09 00:35:16;;;;;;;8.30;7.10;;;;;;;;;;4986457;28;20457;-95
2023/04/09 00:37:42;;;;;;;9.30;7.30;;;;;;;;;;4986025;28;20417;-95
2023/04/09 00:40:08;;;;;;;10.60;8.70;;;;;;;;;;4987921;28;20453;-96
2023/04/09 00:42:35;;;;;;;11.20;8.57;;;;;;;;;;4987659;28;20425;-96
2023/04/09 00:45:01;;;;;;;10.07;8.13;;;;;;;;;;5006988;28;20472;-96
2023/04/09 00:47:27;;;;;;;9.80;8.80;;;;;;;;;;5007109;28;20451;-95
2023/04/09 00:49:53;;;;;;;10.97;9.27;;;;;;;;;;5006859;28;20435;-96
2023/04/09 00:52:20;;;;;;;8.87;7.90;;;;;;;;;;5006206;28;20431;-95
2023/04/09 00:54:46;;;;;;;11.23;8.40;;;;;;;;;;5006427;28;20468;-95
2023/04/09 00:57:12;;;;;;;10.97;7.90;;;;;;;;;;5004730;28;20413;-95
2023/04/09 00:59:38;;;;;;;10.17;8.50;;;;;;;;;;5004918;28;20418;-96
2023/04/09 01:02:04;;;;;;;9.27;8.30;;;;;;;;;;5005389;28;20455;-96
2023/04/09 01:04:30;;;;;;;9.03;7.77;;;;;;;;;;5004907;28;20562;-95
2023/04/09 01:07:19;;;;;;;10.80;8.47;;;;;;;;;;4994080;28;20463;-96
2023/04/09 01:10:05;;;;;;;10.43;8.17;;;;;;;;;;4996971;28;20408;-96
2023/04/09 01:12:32;;;;;;;10.60;8.13;;;;;;;;;;4989546;28;20928;-96
2023/04/09 01:15:05;;;;;;;10.20;8.33;;;;;;;;;;4985314;28;20429;-96
2023/04/09 01:17:34;;;;;;;10.90;9.00;;;;;;;;;;4986407;28;20416;-95
2023/04/09 01:20:02;;;;;;;10.10;8.50;;;;;;;;;;4984182;28;20417;-95
2023/04/09 01:22:31;;;;;;;9.23;8.23;;;;;;;;;;4980747;28;20450;-95
2023/04/09 01:25:03;;;;;;;7.33;6.57;;;;;;;;;;5003721;28;20542;-95
2023/04/09 01:27:39;;;;;;;12.37;8.07;;;;;;;;;;4989100;28;20931;-96
2023/04/09 01:30:05;;;;;;;13.53;9.57;;;;;;;;;;4982871;28;20424;-92
2023/04/09 01:32:32;;;;;;;9.70;8.70;;;;;;;;;;4984431;28;20448;-93
2023/04/09 01:34:58;;;;;;;9.63;7.77;;;;;;;;;;4969312;28;20449;-92
2023/04/09 01:37:24;;;;;;;11.50;7.50;;;;;;;;;;4983113;28;20464;-92
2023/04/09 01:39:50;;;;;;;8.63;6.80;;;;;;;;;;5015550;28;20441;-93
2023/04/09 01:42:16;;;;;;;10.70;8.30;;;;;;;;;;5018976;28;20428;-93
2023/04/09 01:44:42;;;;;;;10.37;7.70;;;;;;;;;;4985970;28;20467;-93
2023/04/09 01:47:09;;;;;;;10.17;7.97;;;;;;;;;;4987919;28;20429;-93
2023/04/09 01:49:35;;;;;;;13.83;7.83;;;;;;;;;;4983457;28;20503;-93
2023/04/09 01:52:01;;;;;;;10.10;7.50;;;;;;;;;;4995875;28;20468;-92
2023/04/09 01:54:27;;;;;;;9.47;8.20;;;;;;;;;;4994850;28;20427;-93
2023/04/09 01:56:53;;;;;;;9.73;7.80;;;;;;;;;;4990476;28;20967;-92
2023/04/09 01:59:19;;;;;;;8.63;7.17;;;;;;;;;;4990861;28;20438;-92
2023/04/09 02:01:46;;;;;;;11.20;8.33;;;;;;;;;;4988369;28;20952;-93
2023/04/09 02:04:16;;;;;;;12.30;8.10;;;;;;;;;;4991510;28;20907;-94
2023/04/09 02:06:53;;;;;;;12.20;8.83;;;;;;;;;;4997255;28;20423;-93
2023/04/09 02:09:19;;;;;;;10.30;6.93;;;;;;;;;;4991802;28;20423;-92
2023/04/09 02:11:45;;;;;;;8.73;7.83;;;;;;;;;;4992329;28;20982;-92
2023/04/09 02:14:11;;;;;;;8.40;7.30;;;;;;;;;;4990147;28;20431;-93
2023/04/09 02:16:38;;;;;;;14.80;8.33;;;;;;;;;;4994300;28;20483;-93
2023/04/09 02:19:04;;;;;;;10.33;8.27;;;;;;;;;;4989224;28;20420;-92
2023/04/09 02:21:32;;;;;;;10.03;7.30;;;;;;;;;;4992963;28;20462;-93
2023/04/09 02:23:58;;;;;;;9.20;7.70;;;;;;;;;;4993585;28;20942;-93
2023/04/09 02:26:24;;;;;;;8.70;7.90;;;;;;;;;;4984281;28;20446;-92
2023/04/09 02:28:50;;;;;;;10.10;8.13;;;;;;;;;;5007426;28;20450;-93
2023/04/09 02:31:16;;;;;;;9.90;7.67;;;;;;;;;;4975838;28;20535;-92
2023/04/09 02:33:42;;;;;;;9.93;8.07;;;;;;;;;;4990127;28;20444;-92
2023/04/09 02:36:11;;;;;;;9.50;7.33;;;;;;;;;;5001085;28;20427;-92
2023/04/09 02:38:40;;;;;;;9.13;8.17;;;;;;;;;;4984556;28;20432;-90
2023/04/09 02:41:06;;;;;;;10.33;7.83;;;;;;;;;;4980866;28;20482;-92
2023/04/09 02:43:32;;;;;;;9.40;7.90;;;;;;;;;;4989566;28;20419;-92
2023/04/09 02:45:58;;;;;;;9.07;7.90;;;;;;;;;;4992684;28;20446;-91
2023/04/09 02:48:24;;;;;;;8.67;7.73;;;;;;;;;;4998351;28;20415;-93
2023/04/09 02:50:50;;;;;;;9.73;7.70;;;;;;;;;;4988871;28;20924;-93
2023/04/09 02:53:16;;;;;;;11.73;8.10;;;;;;;;;;4987544;28;20902;-92
2023/04/09 02:55:42;;;;;;;8.97;7.80;;;;;;;;;;4989634;28;20507;-94
2023/04/09 02:58:08;;;;;;;10.13;7.93;;;;;;;;;;5011479;28;20954;-93
2023/04/09 03:00:34;;;;;;;11.80;8.60;;;;;;;;;;4987349;28;20440;-93
2023/04/09 03:03:00;;;;;;;9.60;7.90;;;;;;;;;;4989214;28;21186;-92
2023/04/09 03:05:26;;;;;;;10.50;9.10;;;;;;;;;;4988180;28;20452;-93
2023/04/09 03:07:53;;;;;;;11.50;8.30;;;;;;;;;;5014656;28;20432;-93
2023/04/09 03:10:19;;;;;;;11.80;8.80;;;;;;;;;;5017558;28;20417;-90
2023/04/09 03:12:46;;;;;;;10.90;7.53;;;;;;;;;;4995845;28;20435;-93
2023/04/09 03:15:12;;;;;;;11.77;8.30;;;;;;;;;;4988186;28;20475;-90
2023/04/09 03:17:38;;;;;;;15.90;9.70;;;;;;;;;;5015785;28;20452;-92
2023/04/09 03:20:05;;;;;;;13.60;8.60;;;;;;;;;;5008533;28;20442;-92
2023/04/09 03:22:35;;;;;;;10.13;8.20;;;;;;;;;;4988210;28;21091;-93
2023/04/09 03:25:01;;;;;;;10.83;8.97;;;;;;;;;;5020118;28;20510;-92
2023/04/09 03:27:27;;;;;;;11.80;8.43;;;;;;;;;;5020247;28;20424;-92
2023/04/09 03:29:55;;;;;;;12.27;9.97;;;;;;;;;;5019594;28;20428;-92
2023/04/09 03:32:21;;;;;;;12.40;8.93;;;;;;;;;;5021013;28;20442;-93
2023/04/09 03:34:47;;;;;;;12.73;8.87;;;;;;;;;;4991889;28;20440;-92
2023/04/09 03:37:13;;;;;;;10.83;9.20;;;;;;;;;;4986907;28;20421;-93
2023/04/09 03:39:39;;;;;;;13.03;9.00;;;;;;;;;;4987102;28;20475;-93
2023/04/09 03:42:05;;;;;;;14.03;9.93;;;;;;;;;;4983473;28;20428;-92
2023/04/09 03:44:31;;;;;;;10.70;8.80;;;;;;;;;;5004183;28;20974;-92
2023/04/09 03:46:57;;;;;;;12.20;9.27;;;;;;;;;;5012478;28;20440;-92
2023/04/09 03:49:23;;;;;;;13.03;9.20;;;;;;;;;;5009305;28;20489;-92
2023/04/09 03:51:49;;;;;;;14.67;9.47;;;;;;;;;;4983876;28;20428;-92
2023/04/09 03:54:15;;;;;;;13.97;10.60;;;;;;;;;;4990466;28;20426;-91
2023/04/09 03:56:41;;;;;;;16.00;9.73;;;;;;;;;;4986708;28;20504;-92
2023/04/09 03:59:07;;;;;;;13.10;9.83;;;;;;;;;;4986378;28;20471;-92
2023/04/09 04:01:33;;;;;;;12.67;10.80;;;;;;;;;;4985577;28;20455;-91
2023/04/09 04:03:59;;;;;;;10.60;8.93;;;;;;;;;;4982228;28;20473;-92
2023/04/09 04:06:26;;;;;;;15.53;12.20;;;;;;;;;;4986086;28;20468;-92
2023/04/09 04:08:52;;;;;;;14.03;10.67;;;;;;;;;;4984598;28;20424;-93
2023/04/09 04:11:18;;;;;;;14.60;9.90;;;;;;;;;;5009588;28;21013;-92
2023/04/09 04:13:44;;;;;;;12.87;9.60;;;;;;;;;;4993807;28;20416;-92
2023/04/09 04:16:10;;;;;;;11.90;8.93;;;;;;;;;;5003054;28;20433;-92
2023/04/09 04:18:36;;;;;;;8.77;7.90;;;;;;;;;;4982105;28;20425;-92
2023/04/09 04:21:02;;;;;;;11.83;9.50;;;;;;;;;;4985877;28;20456;-92
2023/04/09 04:23:28;;;;;;;12.60;10.00;;;;;;;;;;4985361;28;20432;-93
2023/04/09 04:25:55;;;;;;;14.27;9.13;;;;;;;;;;4987237;28;20436;-92
2023/04/09 04:28:21;;;;;;;15.70;9.00;;;;;;;;;;4989103;28;20444;-92
2023/04/09 04:30:47;;;;;;;13.50;8.90;;;;;;;;;;4984981;28;20436;-94
2023/04/09 04:33:14;;;;;;;11.80;9.53;;;;;;;;;;4986507;28;20480;-94
2023/04/09 04:35:40;;;;;;;11.73;9.77;;;;;;;;;;4971984;28;20999;-94
2023/04/09 04:38:06;;;;;;;11.53;9.67;;;;;;;;;;4992161;28;20452;-94
2023/04/09 04:40:32;;;;;;;14.20;11.00;;;;;;;;;;4984170;28;20429;-94
2023/04/09 04:42:58;;;;;;;10.83;9.20;;;;;;;;;;4989695;28;20420;-95
2023/04/09 04:45:24;;;;;;;12.80;9.80;;;;;;;;;;4988542;28;20786;-94
2023/04/09 04:47:50;;;;;;;15.43;10.53;;;;;;;;;;5020564;28;20516;-94
2023/04/09 04:50:16;;;;;;;14.07;9.83;;;;;;;;;;5016976;28;20476;-94
2023/04/09 04:52:42;;;;;;;12.27;9.63;;;;;;;;;;4989368;28;20559;-94
2023/04/09 04:55:08;;;;;;;11.80;10.50;;;;;;;;;;4998285;28;20427;-92
2023/04/09 04:57:37;;;;;;;12.13;9.30;;;;;;;;;;5007727;28;20435;-94
2023/04/09 05:00:03;;;;;;;10.97;9.50;;;;;;;;;;4987402;28;20487;-93
2023/04/09 05:02:29;;;;;;;11.93;10.70;;;;;;;;;;5013848;28;20435;-93
2023/04/09 05:04:58;;;;;;;14.23;10.33;;;;;;;;;;4988184;28;20483;-93
2023/04/09 05:07:24;;;;;;;12.70;10.30;;;;;;;;;;5008415;28;20882;-92
2023/04/09 05:09:50;;;;;;;11.50;8.83;;;;;;;;;;4986938;28;20455;-93
2023/04/09 05:12:17;;;;;;;14.17;10.70;;;;;;;;;;5016920;28;20411;-92
2023/04/09 05:14:43;;;;;;;13.90;9.70;;;;;;;;;;5009402;28;20451;-92
2023/04/09 05:17:09;;;;;;;11.27;9.07;;;;;;;;;;4988334;28;20420;-93
2023/04/09 05:19:35;;;;;;;12.03;9.60;;;;;;;;;;4985708;28;20440;-93
2023/04/09 05:22:02;;;;;;;15.73;11.07;;;;;;;;;;4985887;28;20436;-93
2023/04/09 05:24:28;;;;;;;14.20;9.50;;;;;;;;;;5004303;28;20540;-93
2023/04/09 05:26:55;;;;;;;15.30;10.27;;;;;;;;;;4982044;28;20413;-92
2023/04/09 05:29:21;;;;;;;11.03;9.40;;;;;;;;;;4984101;28;20448;-93
2023/04/09 05:31:47;;;;;;;13.07;9.10;;;;;;;;;;4994782;28;20427;-92
2023/04/09 05:34:13;;;;;;;17.07;9.90;;;;;;;;;;4999772;28;20471;-93
2023/04/09 05:36:39;;;;;;;13.97;9.70;;;;;;;;;;4986445;28;20456;-92
2023/04/09 05:39:05;;;;;;;12.93;9.40;;;;;;;;;;4988319;28;20408;-93
2023/04/09 05:41:32;;;;;;;12.63;8.70;;;;;;;;;;5003526;28;20423;-93
2023/04/09 05:43:59;;;;;;;10.50;9.40;;;;;;;;;;5003922;28;20513;-92
2023/04/09 05:46:26;;;;;;;13.70;9.10;;;;;;;;;;4995728;28;20432;-92
2023/04/09 05:48:52;;;;;;;12.80;9.50;;;;;;;;;;5002766;28;20926;-93
2023/04/09 05:51:21;;;;;;;12.90;9.73;;;;;;;;;;4999272;28;20415;-93
2023/04/09 05:53:47;;;;;;;11.63;9.17;;;;;;;;;;5002833;28;20415;-92
2023/04/09 05:56:14;;;;;;;12.40;8.80;;;;;;;;;;5007414;28;20415;-93
2023/04/09 05:58:40;;;;;;;11.50;9.40;;;;;;;;;;5008860;28;20431;-92
2023/04/09 06:01:06;;;;;;;12.60;10.70;;;;;;;;;;4997598;28;20432;-93
2023/04/09 06:03:34;;;;;;;11.43;9.33;;;;;;;;;;5003064;28;20431;-93
2023/04/09 06:06:00;;;;;;;14.63;11.07;;;;;;;;;;5006435;28;20454;-93
2023/04/09 06:08:27;;;;;;;14.20;11.90;;;;;;;;;;5006876;28;20435;-93
2023/04/09 06:10:52;;;;;;;14.10;12.60;;;;;;;;;;5020273;28;20429;-93
2023/04/09 06:13:20;;;;;;;11.90;10.40;;;;;;;;;;4989852;28;20498;-93
2023/04/09 06:15:46;;;;;;;15.23;12.40;;;;;;;;;;5006875;28;20424;-93
2023/04/09 06:18:12;;;;;;;14.30;11.73;;;;;;;;;;4984805;28;20477;-93
2023/04/09 06:20:39;;;;;;;14.03;10.63;;;;;;;;;;4988397;28;20444;-93
2023/04/09 06:23:05;;;;;;;13.47;10.80;;;;;;;;;;4987343;28;20420;-93
2023/04/09 06:25:31;;;;;;;17.30;12.90;;;;;;;;;;4968961;28;20492;-93
2023/04/09 06:27:57;;;;;;;12.30;11.00;;;;;;;;;;4985164;28;20441;-94
2023/04/09 06:30:23;;;;;;;14.53;11.90;;;;;;;;;;4989535;28;20435;-94
2023/04/09 06:32:49;;;;;;;15.23;12.00;;;;;;;;;;4972034;28;20488;-94
2023/04/09 06:35:16;;;;;;;17.97;11.70;;;;;;;;;;5002885;28;20412;-94
2023/04/09 06:37:42;;;;;;;13.70;11.00;;;;;;;;;;4994360;28;20497;-93
2023/04/09 06:40:08;;;;;;;12.40;9.90;;;;;;;;;;4986944;28;20429;-93
2023/04/09 06:42:34;;;;;;;14.03;11.47;;;;;;;;;;4995591;28;20428;-94
2023/04/09 06:45:00;;;;;;;14.47;11.63;;;;;;;;;;4991773;28;20447;-93
2023/04/09 06:47:26;;;;;;;12.03;10.33;;;;;;;;;;4988066;28;20429;-93
2023/04/09 06:49:52;;;;;;;14.40;11.53;;;;;;;;;;4986954;28;20448;-94
2023/04/09 06:52:18;;;;;;;11.70;9.23;;;;;;;;;;5002230;28;20424;-93
2023/04/09 06:54:45;;;;;;;13.30;10.60;;;;;;;;;;4989181;28;20423;-93
2023/04/09 06:57:12;;;;;;;14.00;10.63;;;;;;;;;;4990653;28;20424;-93
2023/04/09 06:59:38;;;;;;;16.07;11.70;;;;;;;;;;4987930;28;20496;-94
2023/04/09 07:02:04;;;;;;;15.13;11.00;;;;;;;;;;5016373;28;20868;-94
2023/04/09 07:04:30;;;;;;;11.50;10.30;;;;;;;;;;5021074;28;20463;-94
2023/04/09 07:06:58;;;;;;;14.17;9.80;;;;;;;;;;4977558;28;20455;-94
2023/04/09 07:09:24;;;;;;;12.53;10.27;;;;;;;;;;4990830;28;20465;-94
2023/04/09 07:11:50;;;;;;;12.97;9.60;;;;;;;;;;4974500;28;20424;-93
2023/04/09 07:14:16;;;;;;;13.23;9.27;;;;;;;;;;4984083;28;20459;-93
2023/04/09 07:16:45;;;;;;;13.87;9.43;;;;;;;;;;4992606;28;20453;-94
2023/04/09 07:19:11;;;;;;;13.33;9.70;;;;;;;;;;5012710;28;20412;-94
2023/04/09 07:21:37;;;;;;;14.13;10.67;;;;;;;;;;4990109;28;20432;-94
2023/04/09 07:24:03;;;;;;;12.10;9.80;;;;;;;;;;4986580;28;20459;-94
2023/04/09 07:26:29;;;;;;;13.47;10.10;;;;;;;;;;4988424;28;20420;-94
2023/04/09 07:28:55;;;;;;;11.73;8.93;;;;;;;;;;4990273;28;20460;-95
2023/04/09 07:31:22;;;;;;;14.47;10.30;;;;;;;;;;4984828;28;20437;-94
2023/04/09 07:33:48;;;;;;;12.50;9.70;;;;;;;;;;4984383;28;20402;-94
2023/04/09 07:36:14;;;;;;;11.53;9.00;;;;;;;;;;4966396;28;20502;-95
2023/04/09 07:38:40;;;;;;;10.17;8.60;;;;;;;;;;4961418;28;20454;-93
2023/04/09 07:41:07;;;;;;;12.20;8.87;;;;;;;;;;4950494;28;20492;-93
2023/04/09 07:43:34;;;;;;;10.47;7.60;;;;;;;;;;4963596;28;20422;-93
2023/04/09 07:46:00;;;;;;;10.60;7.60;;;;;;;;;;4964619;28;21292;-94
2023/04/09 07:48:27;;;;;;;10.40;8.40;;;;;;;;;;4978482;28;20482;-94
2023/04/09 07:50:53;;;;;;;8.73;7.90;;;;;;;;;;4961142;28;20502;-94
2023/04/09 07:53:19;;;;;;;8.73;7.27;;;;;;;;;;4977964;28;20438;-94
2023/04/09 07:55:45;;;;;;;9.53;7.50;;;;;;;;;;4961739;29;20438;-94
2023/04/09 07:58:11;;;;;;;8.77;7.60;;;;;;;;;;4978562;28;21039;-94
2023/04/09 08:00:37;;;;;;;8.43;7.00;;;;;;;;;;4964035;28;20418;-94
2023/04/09 08:03:03;;;;;;;9.13;7.17;;;;;;;;;;4953822;28;20981;-93
2023/04/09 08:05:29;;;;;;;8.80;6.77;;;;;;;;;;5006594;28;20514;-94
2023/04/09 08:07:56;;;;;;;8.17;6.13;;;;;;;;;;4988865;28;20448;-93
2023/04/09 08:10:22;;;;;;;9.03;7.40;;;;;;;;;;4994021;28;20433;-93
2023/04/09 08:12:48;;;;;;;9.17;7.27;;;;;;;;;;4979412;28;20513;-95
2023/04/09 08:15:14;;;;;;;11.10;8.10;;;;;;;;;;4968914;28;20919;-93
2023/04/09 08:17:40;;;;;;;9.63;6.40;;;;;;;;;;4984222;28;20413;-94
2023/04/09 08:20:06;;;;;;;11.63;6.90;;;;;;;;;;5000990;28;20436;-94
2023/04/09 08:22:33;;;;;;;8.07;6.30;;;;;;;;;;4960844;28;20424;-95
2023/04/09 08:24:59;;;;;;;8.40;6.33;;;;;;;;;;4951336;29;20495;-94
2023/04/09 08:27:26;;;;;;;8.67;7.03;;;;;;;;;;4944618;29;20420;-95
2023/04/09 08:29:52;;;;;;;8.53;5.93;;;;;;;;;;4951967;29;20467;-94
2023/04/09 08:32:18;;;;;;;7.80;6.60;;;;;;;;;;4960122;29;20490;-94
2023/04/09 08:34:44;;;;;;;7.80;6.33;;;;;;;;;;4951504;29;20435;-94
2023/04/09 08:37:10;;;;;;;8.40;6.00;;;;;;;;;;4975463;28;20430;-95
2023/04/09 08:39:36;;;;;;;9.60;5.80;;;;;;;;;;4944741;29;20529;-93
2023/04/09 08:42:02;;;;;;;11.37;7.60;;;;;;;;;;4956191;29;20797;-95
2023/04/09 08:44:29;;;;;;;8.40;6.40;;;;;;;;;;4950159;28;20542;-95
2023/04/09 08:46:55;;;;;;;7.80;6.07;;;;;;;;;;4951410;29;20447;-94
2023/04/09 08:49:21;;;;;;;7.37;6.33;;;;;;;;;;4960164;29;20431;-94
2023/04/09 08:51:47;;;;;;;6.20;5.60;;;;;;;;;;4941748;29;20432;-94
2023/04/09 08:54:18;;;;;;;6.67;5.30;;;;;;;;;;4975070;28;20684;-92
2023/04/09 08:56:44;;;;;;;6.70;5.70;;;;;;;;;;4986816;28;20969;-94
2023/04/09 08:59:10;;;;;;;6.20;5.60;;;;;;;;;;4963542;28;20420;-94
2023/04/09 09:01:36;;;;;;;9.13;6.53;;;;;;;;;;4952758;28;20410;-95
2023/04/09 09:04:06;;;;;;;8.00;5.13;;;;;;;;;;4969180;28;20521;-95
2023/04/09 09:06:33;;;;;;;6.20;5.60;;;;;;;;;;4964129;28;20597;-94
2023/04/09 09:08:59;;;;;;;8.43;5.13;;;;;;;;;;4957306;28;20438;-95
2023/04/09 09:11:26;;;;;;;8.40;6.53;;;;;;;;;;4987506;28;20420;-93
2023/04/09 09:14:01;;;;;;;6.57;5.83;;;;;;;;;;4980080;28;20433;-93
2023/04/09 09:16:30;;;;;;;6.10;5.30;;;;;;;;;;4973634;28;20569;-93
2023/04/09 09:18:56;;;;;;;5.80;5.23;;;;;;;;;;4982290;28;20884;-93
2023/04/09 09:21:22;;;;;;;7.07;4.73;;;;;;;;;;4972809;28;20439;-93
2023/04/09 09:23:51;;;;;;;6.47;5.40;;;;;;;;;;4978029;28;20468;-92
2023/04/09 09:26:19;;;;;;;6.90;5.60;;;;;;;;;;4984861;28;20428;-94
2023/04/09 09:28:48;;;;;;;5.77;5.07;;;;;;;;;;5001792;28;20414;-93
2023/04/09 09:31:14;;;;;;;7.40;5.03;;;;;;;;;;5010025;28;20467;-94
2023/04/09 09:33:41;;;;;;;6.90;5.60;;;;;;;;;;4975406;28;20429;-93
2023/04/09 09:36:09;;;;;;;6.87;6.17;;;;;;;;;;4974712;28;20452;-94
2023/04/09 09:38:55;;;;;;;6.43;4.70;;;;;;;;;;5011863;28;20424;-94
2023/04/09 09:41:22;;;;;;;8.40;6.40;;;;;;;;;;4990787;28;20431;-94
2023/04/09 09:43:48;;;;;;;6.57;5.80;;;;;;;;;;4985205;28;20811;-95
2023/04/09 09:46:14;;;;;;;5.50;4.73;;;;;;;;;;4993117;28;20412;-94
2023/04/09 09:48:41;;;;;;;5.67;5.10;;;;;;;;;;4985449;28;20451;-94
2023/04/09 09:51:12;;;;;;;6.13;5.53;;;;;;;;;;4989727;28;20430;-93
2023/04/09 09:53:39;;;;;;;6.37;5.20;;;;;;;;;;5001202;28;20435;-94
2023/04/09 09:56:05;;;;;;;6.90;4.93;;;;;;;;;;5003240;28;20432;-93
2023/04/09 09:58:32;;;;;;;6.00;4.63;;;;;;;;;;4986917;28;20428;-93
2023/04/09 10:01:00;;;;;;;6.83;5.43;;;;;;;;;;4987816;28;20531;-94
2023/04/09 10:03:27;;;;;;;5.47;4.60;;;;;;;;;;4985175;28;20966;-93
2023/04/09 10:05:53;;;;;;;5.17;3.57;;;;;;;;;;4979831;28;20514;-93
2023/04/09 10:08:22;;;;;;;5.90;4.67;;;;;;;;;;4988385;28;20846;-93
2023/04/09 10:10:48;;;;;;;5.80;4.97;;;;;;;;;;5010857;28;20435;-93
2023/04/09 10:13:20;;;;;;;4.33;3.70;;;;;;;;;;4991856;28;21000;-93
2023/04/09 10:15:47;;;;;;;3.40;3.03;;;;;;;;;;5003797;28;20444;-88
2023/04/09 10:18:14;;;;;;;4.67;2.90;;;;;;;;;;4991535;28;20434;-92
2023/04/09 10:20:41;;;;;;;3.10;2.80;;;;;;;;;;4993648;28;20455;-92
2023/04/09 10:23:09;;;;;;;3.63;2.83;;;;;;;;;;4988561;28;20417;-92
2023/04/09 10:25:35;;;;;;;2.77;2.47;;;;;;;;;;4985959;28;20483;-92
2023/04/09 10:28:02;;;;;;;5.20;4.03;;;;;;;;;;4998840;28;20435;-91
2023/04/09 10:30:34;;;;;;;3.60;3.30;;;;;;;;;;4992993;28;20448;-92
2023/04/09 10:33:08;;;;;;;4.77;4.10;;;;;;;;;;4990231;28;20443;-92
2023/04/09 10:35:34;;;;;;;5.17;3.53;;;;;;;;;;4985371;28;20467;-92
2023/04/09 10:38:00;;;;;;;3.37;3.07;;;;;;;;;;4988651;28;20427;-91
2023/04/09 10:40:27;;;;;;;3.33;3.03;;;;;;;;;;4985881;28;20551;-91
2023/04/09 10:42:54;;;;;;;2.90;2.47;;;;;;;;;;4992116;28;20432;-91
2023/04/09 10:45:20;;;;;;;4.80;3.70;;;;;;;;;;4987074;28;20482;-92
2023/04/09 10:47:47;;;;;;;5.03;3.63;;;;;;;;;;5004793;28;20424;-92
2023/04/09 10:50:20;;;;;;;4.90;3.60;;;;;;;;;;4987286;28;20472;-92
2023/04/09 10:52:46;;;;;;;3.53;2.60;;;;;;;;;;4990623;28;20451;-92
2023/04/09 10:55:31;;;;;;;4.00;3.60;;;;;;;;;;4983463;28;20932;-89
2023/04/09 10:57:57;;;;;;;4.13;3.40;;;;;;;;;;5010951;28;20442;-89
2023/04/09 11:00:23;;;;;;;4.57;4.07;;;;;;;;;;4999165;28;20447;-89
2023/04/09 11:03:26;;;;;;;5.30;4.40;;;;;;;;;;4983660;28;21049;-89
2023/04/09 11:05:53;;;;;;;5.77;4.40;;;;;;;;;;4974826;28;20476;-89
2023/04/09 11:08:20;;;;;;;5.40;3.57;;;;;;;;;;4994710;28;20441;-89
2023/04/09 11:10:46;;;;;;;4.27;3.07;;;;;;;;;;4980820;28;20471;-89
2023/04/09 11:13:16;;;;;;;3.70;3.23;;;;;;;;;;4993363;28;20452;-89
2023/04/09 11:15:43;;;;;;;4.73;3.67;;;;;;;;;;4996183;28;21003;-89
2023/04/09 11:18:09;;;;;;;4.90;4.43;;;;;;;;;;5007778;28;20452;-89
2023/04/09 11:20:35;;;;;;;4.60;4.20;;;;;;;;;;4989622;28;20445;-89
2023/04/09 11:23:01;;;;;;;4.13;3.73;;;;;;;;;;5013156;28;20444;-89
2023/04/09 11:25:39;;;;;;;5.97;5.03;;;;;;;;;;5006833;28;20448;-89
2023/04/09 11:28:07;;;;;;;4.80;4.23;;;;;;;;;;4988980;28;20411;-90
2023/04/09 11:30:33;;;;;;;4.87;4.33;;;;;;;;;;4981979;28;20812;-89
2023/04/09 11:32:59;;;;;;;4.93;4.43;;;;;;;;;;4985295;28;20443;-90
2023/04/09 11:35:26;;;;;;;7.33;4.67;;;;;;;;;;4984298;28;20443;-89
2023/04/09 11:37:53;;;;;;;5.03;4.30;;;;;;;;;;4981291;28;20436;-90
2023/04/09 11:40:22;;;;;;;5.77;5.20;;;;;;;;;;4993459;28;20574;-89
2023/04/09 11:42:48;;;;;;;4.53;3.87;;;;;;;;;;5005820;28;20425;-89
2023/04/09 11:45:15;;;;;;;5.63;4.77;;;;;;;;;;4983574;28;20457;-89
2023/04/09 11:47:41;;;;;;;5.57;5.07;;;;;;;;;;4984590;28;20560;-90
2023/04/09 11:50:07;;;;;;;4.70;4.20;;;;;;;;;;4985216;28;20424;-90
2023/04/09 11:52:34;;;;;;;6.13;4.40;;;;;;;;;;4985617;28;20449;-93
2023/04/09 11:55:04;;;;;;;5.77;4.57;;;;;;;;;;4987788;28;20436;-92
2023/04/09 11:57:37;;;;;;;4.83;4.20;;;;;;;;;;4986507;28;20520;-91
2023/04/09 12:00:07;;;;;;;5.77;5.27;;;;;;;;;;5001413;28;20471;-92
2023/04/09 12:02:34;;;;;;;4.80;4.40;;;;;;;;;;4984449;28;21010;-92
2023/04/09 12:05:03;;;;;;;5.73;4.97;;;;;;;;;;4981957;28;20527;-91
2023/04/09 12:07:33;;;;;;;5.93;5.33;;;;;;;;;;4985997;28;20574;-92
2023/04/09 12:10:03;;;;;;;6.57;4.87;;;;;;;;;;4985815;28;20460;-91
2023/04/09 12:12:29;;;;;;;5.57;5.07;;;;;;;;;;4993266;28;20919;-91
2023/04/09 12:14:57;;;;;;;7.10;5.47;;;;;;;;;;4985879;28;20495;-92
2023/04/09 12:17:23;;;;;;;6.43;5.07;;;;;;;;;;4993349;28;20427;-92
2023/04/09 12:19:49;;;;;;;5.30;4.77;;;;;;;;;;4987244;28;20943;-92
2023/04/09 12:22:15;;;;;;;5.63;4.90;;;;;;;;;;4983910;28;20440;-91
2023/04/09 12:24:41;;;;;;;5.77;5.17;;;;;;;;;;4982954;28;20507;-91
2023/04/09 12:27:09;;;;;;;7.90;5.00;;;;;;;;;;4983243;28;20451;-92
2023/04/09 12:29:35;;;;;;;6.67;6.03;;;;;;;;;;4990329;28;20511;-92
2023/04/09 12:32:01;;;;;;;5.60;5.07;;;;;;;;;;4991437;28;20687;-92
2023/04/09 12:34:27;;;;;;;6.60;5.50;;;;;;;;;;4983363;28;20429;-92
2023/04/09 12:36:53;;;;;;;6.80;5.90;;;;;;;;;;4977629;28;20432;-90
2023/04/09 12:39:19;;;;;;;5.90;5.30;;;;;;;;;;4996563;28;20425;-94
2023/04/09 12:41:45;;;;;;;6.13;5.37;;;;;;;;;;5001282;28;20502;-96
2023/04/09 12:44:11;;;;;;;6.03;5.43;;;;;;;;;;4985566;28;20853;-96
2023/04/09 12:46:37;;;;;;;7.37;6.10;;;;;;;;;;4988385;28;20436;-95
2023/04/09 12:49:04;;;;;;;5.63;5.03;;;;;;;;;;4985410;28;20479;-95
2023/04/09 12:51:31;;;;;;;6.07;5.47;;;;;;;;;;4990440;28;20445;-96
2023/04/09 14:24:10;;;;;;;6.83;3.53;;;;;;;;;;5058675;28;20473;-95
2023/04/09 14:26:36;;;;;;;4.50;3.90;;;;;;;;;;5027469;28;20437;-95
2023/04/09 14:29:03;;;;;;;4.40;3.77;;;;;;;;;;5048471;28;20690;-95
2023/04/09 14:31:29;;;;;;;5.60;4.00;;;;;;;;;;5025531;28;20461;-93
2023/04/09 14:33:55;;;;;;;4.90;3.50;;;;;;;;;;5022390;28;20509;-94
2023/04/09 14:36:21;;;;;;;4.30;3.60;;;;;;;;;;5026392;28;20421;-96
2023/04/09 14:38:48;;;;;;;5.10;4.30;;;;;;;;;;5025359;28;20506;-94
2023/04/09 14:41:14;;;;;;;5.20;4.27;;;;;;;;;;5044377;28;20407;-91
2023/04/09 14:43:42;;;;;;;5.07;4.00;;;;;;;;;;5035131;28;20516;-96
2023/04/09 14:46:10;;;;;;;5.40;3.50;;;;;;;;;;5017617;28;20462;-94
2023/04/09 14:48:41;;;;;;;5.40;4.10;;;;;;;;;;5036216;28;20437;-94
2023/04/09 14:51:08;;;;;;;7.27;4.10;;;;;;;;;;5033523;28;20424;-93
2023/04/09 14:53:35;;;;;;;5.70;4.10;;;;;;;;;;5025049;28;20390;-93
2023/04/09 14:56:02;;;;;;;4.90;4.40;;;;;;;;;;5024966;28;20442;-93
2023/04/09 14:58:28;;;;;;;4.63;4.07;;;;;;;;;;5042311;28;20448;-93
2023/04/09 15:00:55;;;;;;;5.27;4.23;;;;;;;;;;5031088;28;20490;-93
2023/04/09 15:03:21;;;;;;;4.93;3.53;;;;;;;;;;5021942;28;20473;-93
2023/04/09 15:05:47;;;;;;;5.27;4.67;;;;;;;;;;5053953;28;20466;-93
2023/04/09 15:08:13;;;;;;;5.53;4.10;;;;;;;;;;5025910;28;20427;-93
2023/04/09 15:10:39;;;;;;;4.70;3.87;;;;;;;;;;5027482;28;20421;-93
2023/04/09 15:13:05;;;;;;;4.63;3.90;;;;;;;;;;5026018;28;20430;-93
2023/04/09 15:15:32;;;;;;;4.17;3.77;;;;;;;;;;5027224;28;20438;-93
2023/04/09 15:18:04;;;;;;;4.93;4.43;;;;;;;;;;5029186;28;20492;-92
2023/04/09 15:20:30;;;;;;;6.10;4.70;;;;;;;;;;5022166;28;20783;-92
2023/04/09 15:22:56;;;;;;;4.63;3.70;;;;;;;;;;5019333;28;20483;-91
2023/04/09 15:25:23;;;;;;;5.33;4.20;;;;;;;;;;5034121;28;20453;-93
2023/04/09 15:27:49;;;;;;;5.27;3.70;;;;;;;;;;5030351;28;20433;-93
2023/04/09 15:30:15;;;;;;;4.90;4.40;;;;;;;;;;5027685;28;20433;-93
2023/04/09 15:32:41;;;;;;;4.70;4.30;;;;;;;;;;5026635;28;20454;-92
2023/04/09 15:35:07;;;;;;;5.70;4.40;;;;;;;;;;5035937;28;20418;-92
2023/04/09 15:37:33;;;;;;;4.93;3.90;;;;;;;;;;5027715;28;20484;-93
2023/04/09 15:39:59;;;;;;;5.17;4.10;;;;;;;;;;5026676;28;20456;-93
2023/04/09 15:42:25;;;;;;;6.20;4.60;;;;;;;;;;5049690;28;20489;-92
2023/04/09 15:44:51;;;;;;;6.07;4.53;;;;;;;;;;5026858;28;20450;-92
2023/04/09 15:47:17;;;;;;;7.17;4.33;;;;;;;;;;5036401;28;20463;-92
2023/04/09 15:49:44;;;;;;;5.40;4.83;;;;;;;;;;5049938;28;20973;-92
2023/04/09 15:52:10;;;;;;;5.27;3.97;;;;;;;;;;5033508;28;20957;-91
2023/04/09 15:54:36;;;;;;;5.33;4.60;;;;;;;;;;5049682;28;20765;-92
2023/04/09 15:57:03;;;;;;;5.57;4.13;;;;;;;;;;5038735;28;20428;-91
2023/04/09 15:59:29;;;;;;;4.43;3.63;;;;;;;;;;5048538;28;20430;-93
2023/04/09 16:01:55;;;;;;;4.80;3.70;;;;;;;;;;5025749;28;20925;-92
2023/04/09 16:04:21;;;;;;;5.13;4.63;;;;;;;;;;5010377;28;20498;-93